Alma, New Mexico
Current Conditions -  °F | °C
As of 5:55 AM on Saturday 01 Nov 2014 (Local Time) from KSVC Reporting Station
Broken Clouds Broken Clouds  
Wind Chill: 12°   Ceiling: 7500
Heat Index: 12°   Visibility: 10mi
Dew Point:   Wind: 8mph
Humidity: 62%   Direction: 70°ENE
Pressure: 30.17"   Gusts: NA
Location:  33.3051°N, 108.67°W
Report Text: KSVC 011155Z AUTO 07007KT 10SM BKN075 12/05 A3017 RMK AO2
Loading
Personal Weather Stations






























Interactive Weather Map
Tropical Storm Tracking
New forecast layout! Learn more

10-Day Weather Forecast

Advertisements
Track Severe Weather on mobile